createdAt,value
2023-01-26T00:00:25.826Z,27.84
2023-01-26T00:00:55.933Z,27.80
2023-01-26T00:01:26.048Z,27.80
2023-01-26T00:01:56.163Z,27.80
2023-01-26T00:02:26.356Z,27.80
2023-01-26T00:02:56.376Z,27.80
2023-01-26T00:03:26.537Z,27.81
2023-01-26T00:03:56.594Z,27.80
2023-01-26T00:04:26.562Z,27.78
2023-01-26T00:04:56.680Z,27.80
2023-01-26T00:05:26.680Z,27.76
2023-01-26T00:05:56.785Z,27.81
2023-01-26T00:06:26.909Z,27.78
2023-01-26T00:06:56.954Z,27.81
2023-01-26T00:07:27.076Z,27.78
2023-01-26T00:07:57.179Z,27.85
2023-01-26T00:08:27.294Z,27.78
2023-01-26T00:08:57.421Z,27.78
2023-01-26T00:09:27.534Z,27.80
2023-01-26T00:09:57.631Z,27.80
2023-01-26T00:10:27.747Z,27.81
2023-01-26T00:10:57.844Z,27.78
2023-01-26T00:11:27.962Z,27.76
2023-01-26T00:11:58.020Z,27.76
2023-01-26T00:12:28.089Z,27.76
2023-01-26T00:12:58.165Z,27.83
2023-01-26T00:13:28.258Z,27.73
2023-01-26T00:13:58.309Z,27.84
2023-01-26T00:14:28.381Z,27.76
2023-01-26T00:14:58.450Z,27.75
2023-01-26T00:15:28.565Z,27.78
2023-01-26T00:15:58.669Z,27.80
2023-01-26T00:16:28.818Z,27.78
2023-01-26T00:16:58.762Z,27.81
2023-01-26T00:17:28.839Z,27.81
2023-01-26T00:17:58.914Z,27.75
2023-01-26T00:18:28.994Z,27.76
2023-01-26T00:18:59.055Z,27.81
2023-01-26T00:19:29.127Z,27.78
2023-01-26T00:19:59.200Z,27.80
2023-01-26T00:20:29.274Z,27.82
2023-01-26T00:20:59.368Z,27.73
2023-01-26T00:21:29.487Z,27.80
2023-01-26T00:21:59.589Z,27.78
2023-01-26T00:22:29.695Z,27.75
2023-01-26T00:22:59.697Z,27.81
2023-01-26T00:23:29.812Z,27.78
2023-01-26T00:23:59.953Z,27.75
2023-01-26T00:24:29.935Z,27.75
2023-01-26T00:25:00.049Z,27.72
2023-01-26T00:25:30.169Z,27.70
2023-01-26T00:26:00.282Z,27.75
2023-01-26T00:26:30.386Z,27.72
2023-01-26T00:27:00.495Z,27.73
2023-01-26T00:27:30.609Z,27.72
2023-01-26T00:28:00.720Z,27.72
2023-01-26T00:28:30.834Z,27.69
2023-01-26T00:29:00.966Z,27.70
2023-01-26T00:29:31.059Z,27.74
2023-01-26T00:30:01.195Z,27.70
2023-01-26T00:30:31.347Z,27.70
2023-01-26T00:31:01.396Z,27.67
2023-01-26T00:31:31.454Z,27.69
2023-01-26T00:32:01.429Z,27.66
2023-01-26T00:32:31.542Z,27.70
2023-01-26T00:33:01.657Z,27.66
2023-01-26T00:33:31.767Z,27.68
2023-01-26T00:34:01.883Z,27.63
2023-01-26T00:34:31.993Z,27.58
2023-01-26T00:35:02.121Z,27.60
2023-01-26T00:35:32.224Z,27.53
2023-01-26T00:36:02.357Z,27.55
2023-01-26T00:36:32.328Z,27.53
2023-01-26T00:37:02.439Z,27.58
2023-01-26T00:37:32.567Z,27.58
2023-01-26T00:38:02.659Z,27.49
2023-01-26T00:38:32.782Z,27.49
2023-01-26T00:39:02.884Z,27.57
2023-01-26T00:39:33.001Z,27.47
2023-01-26T00:40:03.107Z,27.50
2023-01-26T00:40:33.225Z,27.52
2023-01-26T00:41:03.336Z,27.50
2023-01-26T00:41:33.459Z,27.55
2023-01-26T00:42:03.565Z,27.47
2023-01-26T00:42:33.607Z,27.41
2023-01-26T00:43:03.747Z,27.53
2023-01-26T00:43:33.837Z,27.52
2023-01-26T00:44:03.977Z,27.49
2023-01-26T00:44:34.070Z,27.44
2023-01-26T00:45:04.177Z,27.53
2023-01-26T00:45:34.302Z,27.45
2023-01-26T00:46:04.405Z,27.48
2023-01-26T00:46:34.648Z,27.52
2023-01-26T00:47:04.623Z,27.48
2023-01-26T00:47:34.724Z,27.48
2023-01-26T00:48:04.841Z,27.40
2023-01-26T00:48:34.956Z,27.49
2023-01-26T00:49:05.079Z,27.52
2023-01-26T00:49:35.181Z,27.52
2023-01-26T00:50:05.290Z,27.52
2023-01-26T00:50:35.409Z,27.53
2023-01-26T00:51:05.519Z,27.53
2023-01-26T00:51:35.630Z,27.55
2023-01-26T00:52:05.755Z,27.51
2023-01-26T00:52:35.857Z,27.53
2023-01-26T00:53:05.976Z,27.53
2023-01-26T00:53:36.077Z,27.53
2023-01-26T00:54:06.186Z,27.58
2023-01-26T00:54:36.311Z,27.53
2023-01-26T00:55:06.413Z,27.59
2023-01-26T00:55:36.537Z,27.61
2023-01-26T00:56:06.643Z,27.62
2023-01-26T00:56:36.752Z,27.56
2023-01-26T00:57:06.869Z,27.56
2023-01-26T00:57:36.902Z,27.58
2023-01-26T00:58:07.010Z,27.54
2023-01-26T00:58:37.123Z,27.56
2023-01-26T00:59:07.253Z,27.59
2023-01-26T00:59:37.368Z,27.60
2023-01-26T01:00:07.449Z,27.55
2023-01-26T01:00:37.708Z,27.60
2023-01-26T01:01:07.577Z,27.59
2023-01-26T01:01:37.620Z,27.65
2023-01-26T01:02:07.642Z,27.60
2023-01-26T01:02:37.738Z,27.60
2023-01-26T01:03:07.878Z,27.62
2023-01-26T01:03:37.975Z,27.57
2023-01-26T01:04:08.083Z,27.65
2023-01-26T01:04:38.195Z,27.65
2023-01-26T01:05:08.303Z,27.62
2023-01-26T01:05:38.415Z,27.62
2023-01-26T01:06:08.531Z,27.60
2023-01-26T01:06:38.636Z,27.67
2023-01-26T01:07:08.773Z,27.62
2023-01-26T01:07:38.747Z,27.59
2023-01-26T01:08:08.862Z,27.64
2023-01-26T01:08:38.979Z,27.60
2023-01-26T01:09:09.076Z,27.63
2023-01-26T01:09:39.189Z,27.62
2023-01-26T01:10:09.694Z,27.61
2023-01-26T01:10:39.390Z,27.57
2023-01-26T01:11:09.487Z,27.62
2023-01-26T01:11:39.533Z,27.65
2023-01-26T01:12:09.612Z,27.61
2023-01-26T01:12:39.687Z,27.61
2023-01-26T01:13:09.765Z,27.65
2023-01-26T01:13:39.850Z,27.60
2023-01-26T01:14:09.931Z,27.65
2023-01-26T01:14:39.986Z,27.63
2023-01-26T01:15:10.060Z,27.62
2023-01-26T01:15:40.134Z,27.68
2023-01-26T01:16:10.277Z,27.59
2023-01-26T01:16:40.221Z,27.59
2023-01-26T01:17:10.297Z,27.60
2023-01-26T01:17:40.367Z,27.66
2023-01-26T01:18:10.442Z,27.57
2023-01-26T01:18:40.519Z,27.66
2023-01-26T01:19:10.596Z,27.60
2023-01-26T01:19:40.670Z,27.60
2023-01-26T01:20:11.225Z,27.60
2023-01-26T01:20:40.828Z,27.58
2023-01-26T01:21:10.942Z,27.63
2023-01-26T01:21:41.045Z,27.60
2023-01-26T01:22:11.157Z,27.58
2023-01-26T01:22:41.275Z,27.60
2023-01-26T01:23:11.382Z,27.60
2023-01-26T01:23:41.489Z,27.60
2023-01-26T01:24:11.695Z,27.55
2023-01-26T01:24:41.662Z,27.57
2023-01-26T01:25:11.800Z,27.58
2023-01-26T01:25:41.781Z,27.55
2023-01-26T01:26:11.898Z,27.61
2023-01-26T01:26:41.997Z,27.57
2023-01-26T01:27:12.144Z,27.61
2023-01-26T01:27:42.111Z,27.58
2023-01-26T01:28:12.218Z,27.65
2023-01-26T01:28:42.338Z,27.58
2023-01-26T01:29:12.445Z,27.57
2023-01-26T01:29:42.578Z,27.61
2023-01-26T01:30:13.038Z,27.55
2023-01-26T01:30:42.734Z,27.60
2023-01-26T01:31:12.782Z,27.58
2023-01-26T01:31:42.833Z,27.60
2023-01-26T01:32:12.857Z,27.55
2023-01-26T01:32:42.970Z,27.60
2023-01-26T01:33:13.081Z,27.60
2023-01-26T01:33:43.210Z,27.57
2023-01-26T01:34:13.217Z,27.55
2023-01-26T01:34:43.333Z,27.65
2023-01-26T01:35:13.433Z,27.57
2023-01-26T01:35:43.580Z,27.60
2023-01-26T01:36:13.587Z,27.63
2023-01-26T01:36:43.718Z,27.60
2023-01-26T01:37:13.695Z,27.63
2023-01-26T01:37:43.806Z,27.58
2023-01-26T01:38:13.928Z,27.53
2023-01-26T01:38:44.032Z,27.53
2023-01-26T01:39:14.138Z,27.55
2023-01-26T01:39:44.250Z,27.60
2023-01-26T01:40:14.522Z,27.48
2023-01-26T01:40:44.381Z,27.52
2023-01-26T01:41:14.488Z,27.53
2023-01-26T01:41:44.596Z,27.55
2023-01-26T01:42:14.713Z,27.50
2023-01-26T01:42:44.823Z,27.48
2023-01-26T01:43:14.936Z,27.47
2023-01-26T01:43:45.052Z,27.52
2023-01-26T01:44:15.192Z,27.50
2023-01-26T01:44:45.299Z,27.48
2023-01-26T01:45:15.408Z,27.53
2023-01-26T01:45:45.391Z,27.53
2023-01-26T01:46:15.560Z,27.50
2023-01-26T01:46:45.602Z,27.50
2023-01-26T01:47:15.612Z,27.53
2023-01-26T01:47:45.725Z,27.55
2023-01-26T01:48:15.839Z,27.58
2023-01-26T01:48:45.952Z,27.53
2023-01-26T01:49:16.069Z,27.53
2023-01-26T01:49:46.175Z,27.53
2023-01-26T01:50:16.310Z,27.48
2023-01-26T01:50:46.299Z,27.47
2023-01-26T01:51:16.402Z,27.58
2023-01-26T01:51:46.509Z,27.53
2023-01-26T01:52:16.623Z,27.52
2023-01-26T01:52:46.737Z,27.53
2023-01-26T01:53:16.842Z,27.56
2023-01-26T01:53:46.951Z,27.55
2023-01-26T01:54:17.059Z,27.50
2023-01-26T01:54:47.174Z,27.53
2023-01-26T01:55:17.307Z,27.58
2023-01-26T01:55:47.316Z,27.52
2023-01-26T01:56:17.412Z,27.52
2023-01-26T01:56:47.517Z,27.52
2023-01-26T01:57:17.693Z,27.52
2023-01-26T01:57:47.652Z,27.52
2023-01-26T01:58:17.765Z,27.57
2023-01-26T01:58:47.876Z,27.53
2023-01-26T01:59:17.983Z,27.57
2023-01-26T01:59:48.119Z,27.53
2023-01-26T02:00:18.213Z,27.52
2023-01-26T02:00:48.369Z,27.58
2023-01-26T02:01:18.424Z,27.58
2023-01-26T02:01:48.554Z,27.55
2023-01-26T02:02:18.641Z,27.53
2023-01-26T02:02:48.616Z,27.53
2023-01-26T02:03:18.730Z,27.50
2023-01-26T02:03:48.841Z,27.53
2023-01-26T02:04:18.956Z,27.53
2023-01-26T02:04:49.065Z,27.53
2023-01-26T02:05:19.173Z,27.52
2023-01-26T02:05:49.287Z,27.50
2023-01-26T02:06:19.396Z,27.53
2023-01-26T02:06:49.506Z,27.53
2023-01-26T02:07:19.630Z,27.50
2023-01-26T02:07:49.615Z,27.50
2023-01-26T02:08:19.726Z,27.52
2023-01-26T02:08:49.843Z,27.48
2023-01-26T02:09:19.941Z,27.52
2023-01-26T02:09:50.093Z,27.46
2023-01-26T02:10:20.066Z,27.52
2023-01-26T02:10:50.157Z,27.47
2023-01-26T02:11:20.236Z,27.52
2023-01-26T02:11:50.311Z,27.47
2023-01-26T02:12:20.419Z,27.44
2023-01-26T02:12:50.501Z,27.50
2023-01-26T02:13:20.563Z,27.46
2023-01-26T02:13:50.641Z,27.49
2023-01-26T02:14:59.736Z,27.48
2023-01-26T02:15:29.780Z,27.47
2023-01-26T02:15:59.939Z,27.45
2023-01-26T02:16:30.008Z,27.50
2023-01-26T02:16:59.892Z,27.53
2023-01-26T02:17:29.991Z,27.53
2023-01-26T02:18:00.100Z,27.53
2023-01-26T02:18:30.142Z,27.53
2023-01-26T02:19:00.214Z,27.50
2023-01-26T02:19:30.288Z,27.50
2023-01-26T02:20:00.359Z,27.50
2023-01-26T02:20:30.435Z,27.57
2023-01-26T02:21:00.505Z,27.52
2023-01-26T02:21:30.580Z,27.53
2023-01-26T02:22:00.660Z,27.52
2023-01-26T02:22:30.754Z,27.48
2023-01-26T02:23:00.824Z,27.53
2023-01-26T02:23:30.898Z,27.50
2023-01-26T02:24:01.064Z,27.52
2023-01-26T02:24:31.027Z,27.52
2023-01-26T02:25:01.019Z,27.48
2023-01-26T02:25:31.124Z,27.52
2023-01-26T02:26:01.240Z,27.50
2023-01-26T02:26:31.350Z,27.52
2023-01-26T02:27:01.465Z,27.50
2023-01-26T02:27:31.474Z,27.50
2023-01-26T02:28:01.476Z,27.44
2023-01-26T02:28:31.454Z,27.50
2023-01-26T02:29:01.577Z,27.48
2023-01-26T02:29:31.678Z,27.48
2023-01-26T02:30:01.833Z,27.48
2023-01-26T02:30:31.941Z,27.52
2023-01-26T02:31:01.954Z,27.52
2023-01-26T02:31:31.956Z,27.47
2023-01-26T02:32:01.912Z,27.50
2023-01-26T02:32:32.034Z,27.48
2023-01-26T02:33:02.141Z,27.42
2023-01-26T02:33:32.289Z,27.48
2023-01-26T02:34:02.266Z,27.44
2023-01-26T02:34:32.388Z,27.39
2023-01-26T02:35:02.434Z,27.50
2023-01-26T02:35:32.450Z,27.47
2023-01-26T02:36:02.550Z,27.44
2023-01-26T02:36:32.673Z,27.47
2023-01-26T02:37:02.783Z,27.47
2023-01-26T02:37:32.891Z,27.45
2023-01-26T02:38:03.000Z,27.50
2023-01-26T02:38:33.107Z,27.48
2023-01-26T02:39:03.222Z,27.45
2023-01-26T02:39:33.334Z,27.46
2023-01-26T02:40:03.442Z,27.39
2023-01-26T02:40:33.567Z,27.46
2023-01-26T02:41:03.680Z,27.41
2023-01-26T02:41:33.775Z,27.41
2023-01-26T02:42:03.893Z,27.42
2023-01-26T02:42:33.996Z,27.41
2023-01-26T02:43:04.133Z,27.37
2023-01-26T02:43:34.131Z,27.35
2023-01-26T02:44:04.243Z,27.34
2023-01-26T02:44:34.338Z,27.37
2023-01-26T02:45:04.470Z,27.35
2023-01-26T02:45:34.567Z,27.38
2023-01-26T02:46:04.712Z,27.28
2023-01-26T02:46:34.756Z,27.29
2023-01-26T02:47:04.794Z,27.25
2023-01-26T02:47:34.904Z,27.29
2023-01-26T02:48:05.044Z,27.24
2023-01-26T02:48:35.019Z,27.30
2023-01-26T02:49:05.127Z,27.24
2023-01-26T02:49:35.238Z,27.30
2023-01-26T02:50:05.398Z,27.25
2023-01-26T02:50:35.411Z,27.24
2023-01-26T02:51:05.519Z,27.32
2023-01-26T02:51:35.623Z,27.29
2023-01-26T02:52:05.740Z,27.26
2023-01-26T02:52:35.848Z,27.22
2023-01-26T02:53:05.990Z,27.29
2023-01-26T02:53:35.958Z,27.32
2023-01-26T02:54:06.073Z,27.25
2023-01-26T02:54:36.186Z,27.22
2023-01-26T02:55:06.296Z,27.35
2023-01-26T02:55:36.406Z,27.30
2023-01-26T02:56:06.535Z,27.33
2023-01-26T02:56:36.624Z,27.27
2023-01-26T02:57:06.745Z,27.27
2023-01-26T02:57:36.860Z,27.25
2023-01-26T02:58:06.975Z,27.26
2023-01-26T02:58:37.090Z,27.35
2023-01-26T02:59:07.194Z,27.31
2023-01-26T02:59:37.306Z,27.36
2023-01-26T03:00:07.419Z,27.31
2023-01-26T03:00:38.096Z,27.28
2023-01-26T03:01:07.686Z,27.34
2023-01-26T03:01:37.652Z,27.36
2023-01-26T03:02:07.772Z,27.33
2023-01-26T03:02:37.768Z,27.28
2023-01-26T03:03:07.884Z,27.36
2023-01-26T03:03:38.000Z,27.41
2023-01-26T03:04:08.108Z,27.39
2023-01-26T03:04:38.220Z,27.40
2023-01-26T03:05:08.344Z,27.36
2023-01-26T03:05:38.440Z,27.39
2023-01-26T03:06:08.580Z,27.37
2023-01-26T03:06:38.558Z,27.36
2023-01-26T03:07:08.681Z,27.40
2023-01-26T03:07:38.801Z,27.45
2023-01-26T03:08:08.919Z,27.42
2023-01-26T03:08:38.909Z,27.37
2023-01-26T03:09:09.024Z,27.44
2023-01-26T03:09:39.062Z,27.42
2023-01-26T03:10:09.605Z,27.37
2023-01-26T03:10:39.273Z,27.39
2023-01-26T03:11:09.419Z,27.39
2023-01-26T03:11:39.494Z,27.40
2023-01-26T03:12:09.611Z,27.39
2023-01-26T03:12:39.732Z,27.42
2023-01-26T03:13:09.836Z,27.40
2023-01-26T03:13:39.943Z,27.42
2023-01-26T03:14:10.054Z,27.35
2023-01-26T03:14:40.155Z,27.45
2023-01-26T03:15:10.230Z,27.37
2023-01-26T03:15:40.334Z,27.48
2023-01-26T03:16:10.507Z,27.40
2023-01-26T03:16:40.458Z,27.47
2023-01-26T03:17:10.536Z,27.42
2023-01-26T03:17:40.600Z,27.45
2023-01-26T03:18:10.692Z,27.46
2023-01-26T03:18:40.869Z,27.45
2023-01-26T03:19:10.824Z,27.38
2023-01-26T03:19:40.894Z,27.40
2023-01-26T03:20:11.250Z,27.40
2023-01-26T03:20:40.977Z,27.46
2023-01-26T03:21:11.053Z,27.48
2023-01-26T03:21:41.080Z,27.46
2023-01-26T03:22:11.146Z,27.42
2023-01-26T03:22:41.225Z,27.43
2023-01-26T03:23:11.376Z,27.45
2023-01-26T03:23:41.305Z,27.40
2023-01-26T03:24:11.507Z,27.43
2023-01-26T03:24:41.481Z,27.45
2023-01-26T03:25:11.586Z,27.45
2023-01-26T03:25:41.719Z,27.43
2023-01-26T03:26:11.719Z,27.40
2023-01-26T03:26:41.824Z,27.38
2023-01-26T03:27:11.944Z,27.42
2023-01-26T03:27:42.057Z,27.40
2023-01-26T03:28:12.171Z,27.47
2023-01-26T03:28:42.291Z,27.38
2023-01-26T03:29:12.432Z,27.38
2023-01-26T03:29:42.418Z,27.47
2023-01-26T03:30:12.928Z,27.42
2023-01-26T03:30:42.609Z,27.38
2023-01-26T03:31:12.688Z,27.38
2023-01-26T03:31:42.789Z,27.40
2023-01-26T03:32:12.787Z,27.33
2023-01-26T03:32:42.879Z,27.32
2023-01-26T03:33:12.880Z,27.36
2023-01-26T03:33:43.006Z,27.37
2023-01-26T03:34:13.019Z,27.34
2023-01-26T03:34:43.003Z,27.36
2023-01-26T03:35:13.002Z,27.33
2023-01-26T03:35:43.127Z,27.43
2023-01-26T03:36:13.113Z,27.40
2023-01-26T03:36:43.224Z,27.43
2023-01-26T03:37:13.343Z,27.39
2023-01-26T03:37:43.445Z,27.36
2023-01-26T03:38:13.560Z,27.42
2023-01-26T03:38:43.677Z,27.38
2023-01-26T03:39:13.804Z,27.39
2023-01-26T03:39:43.803Z,27.32
2023-01-26T03:40:14.101Z,27.34
2023-01-26T03:40:43.996Z,27.32
2023-01-26T03:41:14.111Z,27.42
2023-01-26T03:41:44.227Z,27.37
2023-01-26T03:42:14.342Z,27.29
2023-01-26T03:42:44.450Z,27.34
2023-01-26T03:43:14.565Z,27.27
2023-01-26T03:43:44.679Z,27.37
2023-01-26T03:44:14.789Z,27.29
2023-01-26T03:44:44.902Z,27.28
2023-01-26T03:45:15.049Z,27.31
2023-01-26T03:45:45.040Z,27.38
2023-01-26T03:46:15.172Z,27.29
2023-01-26T03:46:45.315Z,27.29
2023-01-26T03:47:15.284Z,27.32
2023-01-26T03:47:45.398Z,27.36
2023-01-26T03:48:15.511Z,27.36
2023-01-26T03:48:45.632Z,27.36
2023-01-26T03:49:15.739Z,27.29
2023-01-26T03:49:45.873Z,27.30
2023-01-26T03:50:15.876Z,27.24
2023-01-26T03:50:45.868Z,27.29
2023-01-26T03:51:15.976Z,27.29
2023-01-26T03:51:46.087Z,27.34
2023-01-26T03:52:16.201Z,27.37
2023-01-26T03:52:46.311Z,27.26
2023-01-26T03:53:16.423Z,27.28
2023-01-26T03:53:46.535Z,27.28
2023-01-26T03:54:16.661Z,27.28
2023-01-26T03:54:46.653Z,27.26
2023-01-26T03:55:16.797Z,27.25
2023-01-26T03:55:46.796Z,27.20
2023-01-26T03:56:16.893Z,27.26
2023-01-26T03:56:47.005Z,27.20
2023-01-26T03:57:17.119Z,27.29
2023-01-26T03:57:47.226Z,27.26
2023-01-26T03:58:17.348Z,27.28
2023-01-26T03:58:47.448Z,27.25
2023-01-26T03:59:17.580Z,27.28
2023-01-26T03:59:47.691Z,27.25
2023-01-26T04:00:17.804Z,27.31
2023-01-26T04:00:47.814Z,27.25
2023-01-26T04:01:17.916Z,27.31
2023-01-26T04:01:48.009Z,27.34
2023-01-26T04:02:18.190Z,27.34
2023-01-26T04:02:48.181Z,27.26
2023-01-26T04:03:18.301Z,27.28
2023-01-26T04:03:48.409Z,27.27
2023-01-26T04:04:18.526Z,27.26
2023-01-26T04:04:48.637Z,27.32
2023-01-26T04:05:18.781Z,27.29
2023-01-26T04:05:48.768Z,27.33
2023-01-26T04:06:18.890Z,27.32
2023-01-26T04:06:49.041Z,27.31
2023-01-26T04:07:18.993Z,27.35
2023-01-26T04:07:49.102Z,27.40
2023-01-26T04:08:19.104Z,27.35
2023-01-26T04:08:49.213Z,27.27
2023-01-26T04:09:19.331Z,27.35
2023-01-26T04:09:49.448Z,27.33
2023-01-26T04:10:19.586Z,27.35
2023-01-26T04:10:49.569Z,27.35
2023-01-26T04:11:19.678Z,27.37
2023-01-26T04:11:49.796Z,27.31
2023-01-26T04:12:19.913Z,27.35
2023-01-26T04:12:50.025Z,27.37
2023-01-26T04:13:20.150Z,27.30
2023-01-26T04:13:50.251Z,27.38
2023-01-26T04:14:20.367Z,27.37
2023-01-26T04:14:50.817Z,27.37
2023-01-26T04:15:20.590Z,27.38
2023-01-26T04:15:50.675Z,27.38
2023-01-26T04:16:20.808Z,27.40
2023-01-26T04:16:50.761Z,27.33
2023-01-26T04:17:20.824Z,27.40
2023-01-26T04:17:50.895Z,27.38
2023-01-26T04:18:20.967Z,27.37
2023-01-26T04:18:51.043Z,27.35
2023-01-26T04:19:21.119Z,27.37
2023-01-26T04:19:51.188Z,27.35
2023-01-26T04:20:21.294Z,27.37
2023-01-26T04:20:51.363Z,27.38
2023-01-26T04:21:21.463Z,27.38
2023-01-26T04:21:51.528Z,27.33
2023-01-26T04:22:21.599Z,27.35
2023-01-26T04:22:51.673Z,27.33
2023-01-26T04:23:21.745Z,27.41
2023-01-26T04:23:51.845Z,27.38
2023-01-26T04:24:21.981Z,27.38
2023-01-26T04:24:51.963Z,27.40
2023-01-26T04:25:22.147Z,27.41
2023-01-26T04:25:52.109Z,27.33
2023-01-26T04:26:22.219Z,27.38
2023-01-26T04:26:52.334Z,27.41
2023-01-26T04:27:22.440Z,27.40
2023-01-26T04:27:52.577Z,27.38
2023-01-26T04:28:22.671Z,27.36
2023-01-26T04:28:52.787Z,27.41
2023-01-26T04:29:24.031Z,27.43
2023-01-26T04:29:52.942Z,27.39
2023-01-26T04:30:23.113Z,27.38
2023-01-26T04:30:53.148Z,27.38
2023-01-26T04:31:23.206Z,27.37
2023-01-26T04:31:53.279Z,27.37
2023-01-26T04:32:23.201Z,27.38
2023-01-26T04:32:53.310Z,27.39
2023-01-26T04:33:23.420Z,27.38
2023-01-26T04:33:53.533Z,27.44
2023-01-26T04:34:23.645Z,27.41
2023-01-26T04:34:53.760Z,27.40
2023-01-26T04:35:23.894Z,27.40
2023-01-26T04:35:53.902Z,27.41
2023-01-26T04:36:23.887Z,27.44
2023-01-26T04:36:54.006Z,27.35
2023-01-26T04:37:24.118Z,27.38
2023-01-26T04:37:54.231Z,27.38
2023-01-26T04:38:24.348Z,27.29
2023-01-26T04:38:54.455Z,27.31
2023-01-26T04:39:24.577Z,27.23
2023-01-26T04:39:54.693Z,27.26
2023-01-26T04:40:24.795Z,27.23
2023-01-26T04:40:54.960Z,27.25
2023-01-26T04:41:24.945Z,27.23
2023-01-26T04:41:55.056Z,27.23
2023-01-26T04:42:25.175Z,27.17
2023-01-26T04:42:55.290Z,27.16
2023-01-26T04:43:25.388Z,27.12
2023-01-26T04:43:55.500Z,27.11
2023-01-26T04:44:25.610Z,27.08
2023-01-26T04:44:55.716Z,27.06
2023-01-26T04:45:25.857Z,27.02
2023-01-26T04:45:56.029Z,27.06
2023-01-26T04:46:26.038Z,27.06
2023-01-26T04:46:56.135Z,27.03
2023-01-26T04:47:29.113Z,26.95
2023-01-26T04:47:56.274Z,26.93
2023-01-26T04:48:26.383Z,26.93
2023-01-26T04:48:56.491Z,26.89
2023-01-26T04:49:26.608Z,26.89
2023-01-26T04:49:56.765Z,26.89
2023-01-26T04:50:26.813Z,26.81
2023-01-26T04:50:56.800Z,26.80
2023-01-26T04:51:26.814Z,26.78
2023-01-26T04:51:56.908Z,26.82
2023-01-26T04:52:27.031Z,26.78
2023-01-26T04:52:57.130Z,26.74
2023-01-26T04:53:27.239Z,26.71
2023-01-26T04:53:57.347Z,26.66
2023-01-26T04:54:27.343Z,26.74
2023-01-26T04:54:57.451Z,26.68
2023-01-26T04:55:27.561Z,26.71
2023-01-26T04:55:57.701Z,26.68
2023-01-26T04:56:27.684Z,26.63
2023-01-26T04:56:57.803Z,26.70
2023-01-26T04:57:27.914Z,26.63
2023-01-26T04:57:58.030Z,26.60
2023-01-26T04:58:28.141Z,26.62
2023-01-26T04:58:58.256Z,26.58
2023-01-26T04:59:28.367Z,26.62
2023-01-26T04:59:58.468Z,26.61
2023-01-26T05:00:28.593Z,26.55
2023-01-26T05:00:58.611Z,26.54
2023-01-26T05:01:28.713Z,26.54
2023-01-26T05:01:58.704Z,26.57
2023-01-26T05:02:28.814Z,26.56
2023-01-26T05:02:58.926Z,26.50
2023-01-26T05:03:29.036Z,26.54
2023-01-26T05:03:59.163Z,26.56
2023-01-26T05:04:29.352Z,26.53
2023-01-26T05:04:59.334Z,26.46
2023-01-26T05:05:29.447Z,26.50
2023-01-26T05:05:59.562Z,26.51
2023-01-26T05:06:29.557Z,26.53
2023-01-26T05:06:59.657Z,26.45
2023-01-26T05:07:29.766Z,26.51
2023-01-26T05:07:59.876Z,26.52
2023-01-26T05:08:30.000Z,26.41
2023-01-26T05:09:00.117Z,26.45
2023-01-26T05:09:30.204Z,26.41
2023-01-26T05:10:00.316Z,26.42
2023-01-26T05:10:30.432Z,26.36
2023-01-26T05:11:00.416Z,26.43
2023-01-26T05:11:30.540Z,26.41
2023-01-26T05:12:00.641Z,26.39
2023-01-26T05:12:30.754Z,26.40
2023-01-26T05:13:00.868Z,26.37
2023-01-26T05:13:30.857Z,26.37
2023-01-26T05:14:00.972Z,26.34
2023-01-26T05:14:31.073Z,26.36
2023-01-26T05:15:01.179Z,26.31
2023-01-26T05:15:31.362Z,26.28
2023-01-26T05:16:01.306Z,26.31
2023-01-26T05:16:31.419Z,26.28
2023-01-26T05:17:01.996Z,26.28
2023-01-26T05:17:31.465Z,26.22
2023-01-26T05:18:01.531Z,26.24
2023-01-26T05:18:31.617Z,26.21
2023-01-26T05:19:01.677Z,26.21
2023-01-26T05:19:31.751Z,26.19
2023-01-26T05:20:01.825Z,26.19
2023-01-26T05:20:31.907Z,26.13
2023-01-26T05:21:01.987Z,26.16
2023-01-26T05:21:32.052Z,26.13
2023-01-26T05:22:02.128Z,26.20
2023-01-26T05:22:32.205Z,26.10
2023-01-26T05:23:02.281Z,26.10
2023-01-26T05:23:32.352Z,26.13
2023-01-26T05:24:02.492Z,26.20
2023-01-26T05:24:32.470Z,26.12
2023-01-26T05:25:02.582Z,26.17
2023-01-26T05:25:32.722Z,26.06
2023-01-26T05:26:02.706Z,26.11
2023-01-26T05:26:32.826Z,26.14
2023-01-26T05:27:02.811Z,26.43
2023-01-26T05:27:32.921Z,26.50
2023-01-26T05:28:03.032Z,26.86
2023-01-26T05:28:33.145Z,26.61
2023-01-26T05:29:03.254Z,26.50
2023-01-26T05:29:33.247Z,26.55
2023-01-26T05:30:03.366Z,26.52
2023-01-26T05:30:33.521Z,26.53
2023-01-26T05:31:03.543Z,26.52
2023-01-26T05:31:33.574Z,26.55
2023-01-26T05:32:03.637Z,26.53
2023-01-26T05:32:33.614Z,26.55
2023-01-26T05:33:03.755Z,26.56
2023-01-26T05:33:33.852Z,26.66
2023-01-26T05:34:03.962Z,26.68
2023-01-26T05:34:34.066Z,26.82
2023-01-26T05:35:04.185Z,26.76
2023-01-26T05:35:34.315Z,26.76
2023-01-26T05:36:04.326Z,26.71
2023-01-26T05:36:34.457Z,26.81
2023-01-26T05:37:04.433Z,26.72
2023-01-26T05:37:34.508Z,26.77
2023-01-26T05:38:04.499Z,26.78
2023-01-26T05:38:34.606Z,26.80
2023-01-26T05:39:04.721Z,26.86
2023-01-26T05:39:34.839Z,26.83
2023-01-26T05:40:04.962Z,27.04
2023-01-26T05:40:35.064Z,27.03
2023-01-26T05:41:05.171Z,26.95
2023-01-26T05:41:35.305Z,27.06
2023-01-26T05:42:05.294Z,26.98
2023-01-26T05:42:35.392Z,27.05
2023-01-26T05:43:05.506Z,27.13
2023-01-26T05:43:35.618Z,27.10
2023-01-26T05:44:05.726Z,27.10
2023-01-26T05:44:35.842Z,27.06
2023-01-26T05:45:05.953Z,27.00
2023-01-26T05:45:36.068Z,27.00
2023-01-26T05:46:06.241Z,27.01
2023-01-26T05:46:36.260Z,27.03
2023-01-26T05:47:06.273Z,26.99
2023-01-26T05:47:36.355Z,27.00
2023-01-26T05:48:06.466Z,27.03
2023-01-26T05:48:36.576Z,27.05
2023-01-26T05:49:06.687Z,26.92
2023-01-26T05:49:36.819Z,26.92
2023-01-26T05:50:06.807Z,26.95
2023-01-26T05:50:36.943Z,26.94
2023-01-26T05:51:06.936Z,27.06
2023-01-26T05:51:37.052Z,27.00
2023-01-26T05:52:07.157Z,27.03
2023-01-26T05:52:37.280Z,26.95
2023-01-26T05:53:07.415Z,26.95
2023-01-26T05:53:37.416Z,26.97
2023-01-26T05:54:07.530Z,27.10
2023-01-26T05:54:37.638Z,27.18
2023-01-26T05:55:07.759Z,27.16
2023-01-26T05:55:37.895Z,27.74
2023-01-26T05:56:07.883Z,27.97
2023-01-26T05:56:38.009Z,27.61
2023-01-26T05:57:07.991Z,27.64
2023-01-26T05:57:38.107Z,27.56
2023-01-26T05:58:08.219Z,27.59
2023-01-26T05:58:38.331Z,27.62
2023-01-26T05:59:08.443Z,27.59
2023-01-26T05:59:38.560Z,27.57
2023-01-26T06:00:08.887Z,27.56
2023-01-26T06:00:38.932Z,27.46
2023-01-26T06:01:08.668Z,27.35
2023-01-26T06:01:38.658Z,27.38
2023-01-26T06:02:08.838Z,27.38
2023-01-26T06:02:38.871Z,27.25
2023-01-26T06:03:08.957Z,27.33
2023-01-26T06:03:39.071Z,27.33
2023-01-26T06:04:09.256Z,27.14
2023-01-26T06:04:39.328Z,27.11
2023-01-26T06:05:09.317Z,27.06
2023-01-26T06:05:39.457Z,27.09
2023-01-26T06:06:09.433Z,26.98
2023-01-26T06:06:39.438Z,27.01
2023-01-26T06:07:09.436Z,26.95
2023-01-26T06:07:39.421Z,26.90
2023-01-26T06:08:09.530Z,26.88
2023-01-26T06:08:39.644Z,26.84
2023-01-26T06:09:09.761Z,26.80
2023-01-26T06:09:39.753Z,26.79
2023-01-26T06:10:10.309Z,26.71
2023-01-26T06:10:39.982Z,26.73
2023-01-26T06:11:10.098Z,26.69
2023-01-26T06:11:40.209Z,26.63
2023-01-26T06:12:10.332Z,26.62
2023-01-26T06:12:40.316Z,26.60
2023-01-26T06:13:10.440Z,26.52
2023-01-26T06:13:40.540Z,26.57
2023-01-26T06:14:10.665Z,26.52
2023-01-26T06:14:40.742Z,26.51
2023-01-26T06:15:10.824Z,26.48
2023-01-26T06:15:40.898Z,26.45
2023-01-26T06:16:10.971Z,26.43
2023-01-26T06:16:41.095Z,26.43
2023-01-26T06:17:11.050Z,26.40
2023-01-26T06:17:41.136Z,26.30
2023-01-26T06:18:11.224Z,26.35
2023-01-26T06:18:41.267Z,26.30
2023-01-26T06:19:11.344Z,26.34
2023-01-26T06:19:41.420Z,26.34
2023-01-26T06:20:11.858Z,26.29
2023-01-26T06:20:44.164Z,26.31
2023-01-26T06:21:11.685Z,26.24
2023-01-26T06:21:41.765Z,26.26
2023-01-26T06:22:11.866Z,26.28
2023-01-26T06:22:41.928Z,26.24
2023-01-26T06:23:12.016Z,26.23
2023-01-26T06:23:42.069Z,26.16
2023-01-26T06:24:12.209Z,26.26
2023-01-26T06:24:42.184Z,26.28
2023-01-26T06:25:12.292Z,26.23
2023-01-26T06:25:42.406Z,26.25
2023-01-26T06:26:12.531Z,26.23
2023-01-26T06:26:42.625Z,26.26
2023-01-26T06:27:12.735Z,26.20
2023-01-26T06:27:42.846Z,26.18
2023-01-26T06:28:12.958Z,26.23